createdAt,value
2018-08-12T06:49:55.366Z,2.70
2018-08-12T06:53:02.778Z,2.50
2018-08-12T06:54:21.563Z,2.30
2018-08-12T06:55:30.351Z,2.30
2018-08-12T06:56:42.590Z,2.30
2018-08-12T06:58:20.354Z,2.50
2018-08-12T06:59:37.098Z,2.30
2018-08-12T07:07:35.722Z,2.40
2018-08-12T07:08:16.080Z,2.30
2018-08-12T07:09:41.468Z,2.40
2018-08-12T07:11:34.056Z,2.40
2018-08-12T07:12:34.895Z,2.30
2018-08-12T07:13:50.773Z,2.30
2018-08-12T07:15:11.277Z,2.40
2018-08-12T07:16:19.338Z,2.10
2018-08-12T07:17:20.141Z,2.40
2018-08-12T07:18:31.089Z,2.40
2018-08-12T07:20:09.589Z,2.40
2018-08-12T07:21:40.647Z,2.20
2018-08-12T07:22:52.738Z,2.40
2018-08-12T07:24:28.639Z,2.20
2018-08-12T07:29:11.113Z,2.30
2018-08-12T07:32:54.423Z,2.40
2018-08-12T07:34:33.287Z,2.40
2018-08-12T07:35:35.342Z,2.50
2018-08-12T07:36:40.005Z,2.10
2018-08-12T07:38:15.493Z,2.10
2018-08-12T07:39:36.838Z,2.30
2018-08-12T07:44:36.676Z,2.00
2018-08-12T07:45:37.538Z,2.20
2018-08-12T07:46:49.611Z,1.90
2018-08-12T07:47:55.315Z,2.20
2018-08-12T07:48:57.372Z,2.30
2018-08-12T07:50:26.499Z,1.90
2018-08-12T07:59:19.142Z,2.00
2018-08-12T08:00:55.071Z,2.20
2018-08-12T08:01:56.356Z,2.20
2018-08-12T08:02:57.184Z,2.00
2018-08-12T08:04:05.229Z,2.10
2018-08-12T08:05:06.931Z,2.00
2018-08-12T08:08:11.550Z,2.10
2018-08-12T08:09:14.495Z,2.10
2018-08-12T08:10:37.617Z,2.00
2018-08-12T08:11:40.041Z,1.80
2018-08-12T08:12:48.253Z,1.90
2018-08-12T08:13:49.531Z,1.80
2018-08-12T08:16:59.361Z,1.80
2018-08-12T08:20:04.215Z,1.80
2018-08-12T08:23:00.417Z,1.70
2018-08-12T08:24:21.630Z,1.90
2018-08-12T08:25:22.690Z,1.80
2018-08-12T08:26:52.287Z,2.10
2018-08-12T08:28:01.764Z,1.70
2018-08-12T08:30:22.114Z,1.70
2018-08-12T08:31:30.576Z,1.60
2018-08-12T08:36:14.421Z,1.70
2018-08-12T08:40:52.271Z,1.80
2018-08-12T08:42:03.983Z,1.60
2018-08-12T08:43:22.561Z,1.70
2018-08-12T08:44:25.261Z,1.60
2018-08-12T08:47:21.808Z,1.60
2018-08-12T08:50:45.109Z,1.90
2018-08-12T08:51:46.223Z,1.70
2018-08-12T08:52:58.139Z,1.70
2018-08-12T08:54:11.233Z,1.80
2018-08-12T08:55:13.909Z,1.80
2018-08-12T08:56:19.532Z,2.00
2018-08-12T08:57:43.030Z,1.70
2018-08-12T08:59:10.019Z,1.70
2018-08-12T09:00:16.096Z,1.70
2018-08-12T09:01:35.012Z,1.80
2018-08-12T09:02:38.145Z,1.80
2018-08-12T09:05:51.244Z,1.80
2018-08-12T09:12:23.804Z,1.70
2018-08-12T09:13:38.196Z,1.70
2018-08-12T09:14:40.322Z,1.60
2018-08-12T09:16:18.593Z,1.70
2018-08-12T09:17:22.990Z,1.80
2018-08-12T09:18:29.732Z,1.70
2018-08-12T09:19:43.677Z,1.70
2018-08-12T09:20:49.792Z,1.80
2018-08-12T09:21:50.946Z,1.80
2018-08-12T09:22:54.876Z,2.00
2018-08-12T09:23:55.600Z,1.70
2018-08-12T09:24:57.581Z,1.80
2018-08-12T09:25:58.783Z,1.70
2018-08-12T09:29:56.785Z,1.80
2018-08-12T09:31:30.635Z,1.80
2018-08-12T09:32:56.179Z,1.80
2018-08-12T09:34:31.627Z,1.70
2018-08-12T09:37:40.108Z,1.90
2018-08-12T09:40:29.868Z,1.70
2018-08-12T09:41:30.644Z,2.10
2018-08-12T09:43:01.775Z,1.60
2018-08-12T09:44:06.355Z,1.70
2018-08-12T09:46:56.613Z,1.90
2018-08-12T09:47:57.707Z,1.90
2018-08-12T09:48:59.115Z,1.80
2018-08-12T09:50:00.144Z,1.80
2018-08-12T09:51:01.609Z,1.90
2018-08-12T09:52:02.303Z,1.70
2018-08-12T09:53:04.020Z,1.80
2018-08-12T09:54:05.351Z,1.80
2018-08-12T09:55:10.450Z,1.80
2018-08-12T09:56:11.960Z,1.60
2018-08-12T09:57:12.692Z,1.80
2018-08-12T09:58:13.614Z,1.90
2018-08-12T09:59:23.828Z,1.80
2018-08-12T10:02:23.520Z,1.70
2018-08-12T10:03:24.668Z,1.70
2018-08-12T10:04:31.958Z,1.80
2018-08-12T10:05:38.691Z,1.70
2018-08-12T10:06:43.883Z,1.70
2018-08-12T10:07:44.702Z,1.80
2018-08-12T10:08:45.460Z,1.60
2018-08-12T10:09:46.315Z,1.70
2018-08-12T10:11:08.306Z,1.60
2018-08-12T10:15:08.362Z,1.50
2018-08-12T10:16:35.204Z,1.60
2018-08-12T10:21:17.309Z,1.60
2018-08-12T10:22:18.192Z,1.90
2018-08-12T10:23:19.070Z,1.80
2018-08-12T10:24:29.046Z,1.80
2018-08-12T10:25:30.384Z,1.80
2018-08-12T10:26:31.529Z,1.70
2018-08-12T10:27:33.544Z,1.60
2018-08-12T10:28:42.276Z,1.70
2018-08-12T10:29:43.014Z,1.50
2018-08-12T10:30:44.635Z,1.50
2018-08-12T10:31:45.617Z,1.70
2018-08-12T10:32:46.357Z,1.50
2018-08-12T10:34:09.744Z,1.50
2018-08-12T10:35:21.245Z,1.50
2018-08-12T10:36:22.021Z,1.50
2018-08-12T10:37:26.516Z,1.50
2018-08-12T10:38:31.023Z,1.50
2018-08-12T10:39:32.152Z,1.50
2018-08-12T10:40:32.825Z,1.40
2018-08-12T10:41:39.004Z,1.70
2018-08-12T10:42:43.732Z,1.50
2018-08-12T10:43:44.533Z,1.50
2018-08-12T10:44:50.805Z,1.50
2018-08-12T10:45:51.801Z,1.20
2018-08-12T10:46:52.677Z,1.40
2018-08-12T10:49:13.519Z,1.50
2018-08-12T10:50:14.253Z,1.20
2018-08-12T10:51:15.194Z,1.60
2018-08-12T10:52:26.507Z,1.50
2018-08-12T10:53:27.338Z,1.50
2018-08-12T10:54:33.463Z,1.30
2018-08-12T10:55:41.871Z,1.20
2018-08-12T10:56:50.769Z,1.40
2018-08-12T10:57:55.180Z,1.50
2018-08-12T10:58:57.841Z,1.50
2018-08-12T10:59:58.569Z,1.60
2018-08-12T11:01:10.648Z,1.30
2018-08-12T11:02:12.819Z,1.50
2018-08-12T11:03:13.583Z,1.40
2018-08-12T11:04:20.839Z,1.60
2018-08-12T11:06:21.855Z,1.50
2018-08-12T11:07:22.622Z,1.50
2018-08-12T11:08:23.431Z,1.60
2018-08-12T11:09:41.679Z,1.50
2018-08-12T11:10:43.180Z,1.50
2018-08-12T11:11:45.420Z,1.60
2018-08-12T11:12:47.104Z,1.60
2018-08-12T11:13:47.916Z,1.50
2018-08-12T11:14:48.668Z,1.30
2018-08-12T11:15:57.060Z,1.50
2018-08-12T11:16:58.055Z,1.30
2018-08-12T11:17:58.795Z,1.80
2018-08-12T11:19:30.562Z,1.90
2018-08-12T11:21:18.150Z,1.50
2018-08-12T11:22:39.668Z,1.80
2018-08-12T11:24:06.921Z,1.50
2018-08-12T11:25:07.637Z,1.50
2018-08-12T11:26:19.782Z,1.50
2018-08-12T11:27:21.292Z,1.50
2018-08-12T11:29:58.882Z,1.50
2018-08-12T11:31:06.597Z,1.50
2018-08-12T11:32:28.436Z,1.40
2018-08-12T11:35:17.864Z,1.40
2018-08-12T11:38:38.048Z,1.60
2018-08-12T11:43:04.850Z,1.30
2018-08-12T11:44:05.706Z,1.30
2018-08-12T11:47:04.015Z,1.60
2018-08-12T11:48:12.039Z,1.60
2018-08-12T11:49:40.058Z,1.80
2018-08-12T11:50:40.934Z,1.30
2018-08-12T11:53:14.198Z,1.30
2018-08-12T11:59:43.021Z,1.40
2018-08-12T12:00:49.741Z,1.70
2018-08-12T12:05:27.911Z,1.80
2018-08-12T12:06:28.586Z,1.80
2018-08-12T12:07:35.361Z,1.60
2018-08-12T12:08:39.730Z,1.60
2018-08-12T12:09:58.136Z,1.60
2018-08-12T12:13:14.950Z,1.80
2018-08-12T12:14:19.162Z,1.80
2018-08-12T12:15:33.548Z,1.80
2018-08-12T12:16:39.481Z,1.70
2018-08-12T12:17:44.035Z,1.60
2018-08-12T12:30:03.047Z,1.60
2018-08-12T12:33:20.603Z,1.90
2018-08-12T12:37:44.219Z,1.70
2018-08-12T12:39:21.048Z,1.70
2018-08-12T12:41:18.860Z,1.70
2018-08-12T12:42:20.554Z,1.60
2018-08-12T12:43:43.908Z,1.50
2018-08-12T12:44:58.655Z,2.00
2018-08-12T12:46:43.987Z,1.80
2018-08-12T12:49:41.958Z,1.80
2018-08-12T12:50:50.526Z,1.80
2018-08-12T13:01:11.606Z,1.90
2018-08-12T13:02:34.725Z,1.70
2018-08-12T13:03:41.985Z,1.90
2018-08-12T13:04:57.458Z,1.70
2018-08-12T13:05:58.160Z,1.80
2018-08-12T13:07:13.430Z,1.70
2018-08-12T13:08:14.124Z,1.70
2018-08-12T13:11:19.432Z,1.90
2018-08-12T13:12:45.776Z,1.70
2018-08-12T13:13:47.330Z,1.80
2018-08-12T13:16:37.785Z,1.70
2018-08-12T13:17:39.970Z,1.80
2018-08-12T13:18:44.474Z,1.80
2018-08-12T13:19:45.219Z,1.80
2018-08-12T13:24:24.709Z,1.70
2018-08-12T13:37:00.936Z,2.00
2018-08-12T13:38:09.580Z,1.90
2018-08-12T13:39:10.320Z,1.90
2018-08-12T13:42:43.810Z,1.80
2018-08-12T13:56:28.994Z,1.90
2018-08-12T13:57:33.312Z,1.80
2018-08-12T13:58:41.173Z,1.80
2018-08-12T13:59:48.885Z,1.80
2018-08-12T14:01:11.245Z,1.70
2018-08-12T14:02:11.947Z,1.90
2018-08-12T14:03:18.830Z,1.90
2018-08-12T14:04:27.277Z,2.10
2018-08-12T14:05:29.000Z,1.90
2018-08-12T14:06:39.528Z,2.00
2018-08-12T14:08:08.141Z,1.90
2018-08-12T14:09:12.154Z,1.70
2018-08-12T14:10:12.918Z,1.70
2018-08-12T14:11:44.559Z,1.70
2018-08-12T14:12:45.783Z,1.80
2018-08-12T14:13:46.665Z,1.80
2018-08-12T14:15:12.790Z,1.80
2018-08-12T14:16:20.318Z,1.70
2018-08-12T14:17:21.109Z,1.60
2018-08-12T14:18:23.119Z,1.80
2018-08-12T14:19:23.906Z,1.80
2018-08-12T14:20:29.087Z,1.80
2018-08-12T14:21:30.962Z,1.80
2018-08-12T14:22:55.414Z,1.70
2018-08-12T14:23:56.955Z,1.60
2018-08-12T14:25:11.325Z,1.70
2018-08-12T14:26:14.243Z,1.70
2018-08-12T14:27:17.504Z,1.80
2018-08-12T14:28:29.881Z,1.50
2018-08-12T14:29:30.661Z,1.70
2018-08-12T14:30:33.755Z,1.80
2018-08-12T14:31:34.650Z,1.80
2018-08-12T14:39:49.485Z,1.70
2018-08-12T14:41:25.542Z,1.80
2018-08-12T14:42:26.431Z,1.80
2018-08-12T14:43:54.024Z,1.70
2018-08-12T14:44:58.541Z,1.60
2018-08-12T14:46:00.011Z,1.70
2018-08-12T14:47:18.990Z,1.60
2018-08-12T14:48:20.713Z,1.60
2018-08-12T14:49:22.120Z,1.70
2018-08-12T14:50:24.046Z,2.00
2018-08-12T14:51:24.987Z,1.60
2018-08-12T14:52:27.269Z,1.80
2018-08-12T14:53:42.679Z,1.60
2018-08-12T14:54:43.441Z,1.60
2018-08-12T14:55:45.174Z,1.50
2018-08-12T14:56:47.285Z,1.50
2018-08-12T14:58:10.596Z,1.60
2018-08-12T14:59:18.805Z,1.70
2018-08-12T15:00:47.277Z,1.70
2018-08-12T15:02:17.121Z,1.50
2018-08-12T15:03:28.544Z,1.60
2018-08-12T15:04:49.784Z,1.60
2018-08-12T15:07:46.124Z,1.70
2018-08-12T15:08:48.388Z,1.70
2018-08-12T15:11:37.805Z,1.70
2018-08-12T15:13:57.919Z,1.50
2018-08-12T15:14:58.661Z,1.50
2018-08-12T15:16:00.244Z,1.50
2018-08-12T15:17:01.114Z,1.60
2018-08-12T15:21:37.571Z,1.70
2018-08-12T15:22:52.472Z,1.50
2018-08-12T15:24:02.739Z,1.60
2018-08-12T15:25:05.512Z,1.50
2018-08-12T15:26:08.868Z,1.60
2018-08-12T15:27:09.623Z,1.50
2018-08-12T15:28:10.418Z,1.60
2018-08-12T15:29:36.658Z,1.70
2018-08-12T15:30:40.674Z,1.70
2018-08-12T15:31:41.450Z,1.70
2018-08-12T15:32:42.223Z,1.70
2018-08-12T15:33:42.978Z,1.60
2018-08-12T15:34:43.837Z,1.60
2018-08-12T15:35:44.616Z,1.80
2018-08-12T15:36:46.687Z,1.70
2018-08-12T15:37:52.937Z,1.80
2018-08-12T15:38:54.368Z,1.70
2018-08-12T15:40:16.721Z,1.90
2018-08-12T15:41:19.605Z,1.70
2018-08-12T15:42:20.458Z,1.60
2018-08-12T15:43:44.997Z,1.70
2018-08-12T15:44:48.269Z,1.80
2018-08-12T15:45:49.011Z,1.70
2018-08-12T15:48:40.081Z,1.60
2018-08-12T15:50:02.789Z,1.80
2018-08-12T15:51:37.763Z,1.80
2018-08-12T15:52:48.369Z,1.60
2018-08-12T15:53:59.358Z,1.80
2018-08-12T15:55:00.124Z,1.80
2018-08-12T15:57:50.342Z,1.70
2018-08-12T15:58:54.136Z,1.80
2018-08-12T16:00:06.646Z,1.80
2018-08-12T16:01:09.172Z,1.70
2018-08-12T16:02:09.897Z,1.70
2018-08-12T16:03:34.492Z,1.80
2018-08-12T16:04:35.150Z,1.60
2018-08-12T16:05:36.639Z,1.80
2018-08-12T16:06:54.539Z,1.70
2018-08-12T16:07:55.333Z,1.80
2018-08-12T16:08:56.292Z,1.80
2018-08-12T16:09:57.154Z,1.70
2018-08-12T16:12:23.429Z,1.70
2018-08-12T16:13:24.271Z,1.80
2018-08-12T16:14:25.099Z,1.50
2018-08-12T16:15:40.346Z,1.70
2018-08-12T16:16:41.514Z,1.50
2018-08-12T16:17:53.532Z,1.70
2018-08-12T16:18:55.198Z,1.70
2018-08-12T16:20:02.826Z,1.80
2018-08-12T16:21:03.737Z,1.80
2018-08-12T16:22:07.854Z,1.70
2018-08-12T16:23:16.209Z,1.70
2018-08-12T16:24:16.985Z,1.80
2018-08-12T16:25:17.954Z,1.60
2018-08-12T16:26:18.827Z,1.70
2018-08-12T16:27:19.677Z,1.70
2018-08-12T16:28:26.807Z,1.80
2018-08-12T16:29:27.563Z,1.70
2018-08-12T16:30:28.266Z,1.70
2018-08-12T16:31:29.573Z,1.70
2018-08-12T16:32:40.543Z,1.60
2018-08-12T16:33:41.354Z,1.60
2018-08-12T16:34:46.656Z,1.70
2018-08-12T16:35:47.431Z,1.80
2018-08-12T16:36:57.070Z,1.90
2018-08-12T16:38:54.671Z,1.60
2018-08-12T16:42:48.988Z,1.80
2018-08-12T16:44:14.837Z,1.80
2018-08-12T16:45:17.188Z,1.50
2018-08-12T16:46:19.837Z,1.60
2018-08-12T16:49:20.378Z,1.60
2018-08-12T16:50:38.420Z,1.60
2018-08-12T16:51:40.017Z,1.50
2018-08-12T16:52:59.762Z,1.60
2018-08-12T16:54:21.461Z,1.80
2018-08-12T16:55:22.692Z,1.80
2018-08-12T16:56:52.505Z,1.80
2018-08-12T16:57:53.227Z,1.80
2018-08-12T16:58:54.033Z,1.70
2018-08-12T16:59:55.897Z,1.80
2018-08-12T17:00:58.748Z,1.60
2018-08-12T17:02:00.410Z,1.70
2018-08-12T17:05:14.244Z,1.60
2018-08-12T17:11:43.851Z,1.60
2018-08-12T17:12:45.185Z,1.70
2018-08-12T17:13:47.194Z,1.90
2018-08-12T17:14:48.154Z,1.70
2018-08-12T17:15:48.931Z,1.80
2018-08-12T17:16:50.112Z,1.90
2018-08-12T17:17:54.168Z,1.70
2018-08-12T17:19:16.701Z,1.70
2018-08-12T17:20:19.228Z,1.70
2018-08-12T17:21:20.027Z,1.70
2018-08-12T17:22:34.599Z,1.50
2018-08-12T17:23:36.662Z,1.90
2018-08-12T17:24:39.489Z,1.60
2018-08-12T17:25:40.590Z,1.80
2018-08-12T17:26:41.432Z,1.70
2018-08-12T17:27:45.238Z,1.60
2018-08-12T17:28:48.259Z,1.60
2018-08-12T17:29:50.734Z,1.60
2018-08-12T17:30:51.511Z,1.70
2018-08-12T17:33:54.463Z,1.70
2018-08-12T17:34:55.948Z,1.80
2018-08-12T17:35:56.908Z,1.50
2018-08-12T17:36:57.985Z,1.60
2018-08-12T17:38:01.068Z,1.80
2018-08-12T17:39:16.529Z,1.70
2018-08-12T17:40:20.943Z,1.50
2018-08-12T17:41:25.869Z,1.50
2018-08-12T17:42:30.239Z,1.70
2018-08-12T17:43:35.530Z,1.70
2018-08-12T17:44:36.694Z,1.70
2018-08-12T17:45:41.386Z,1.60
2018-08-12T17:46:42.102Z,1.60
2018-08-12T17:47:42.886Z,1.60
2018-08-12T17:48:48.202Z,1.50
2018-08-12T17:50:03.590Z,1.50
2018-08-12T17:54:39.715Z,1.70
2018-08-12T17:55:42.225Z,1.60
2018-08-12T17:56:43.120Z,1.60
2018-08-12T17:57:44.985Z,1.60
2018-08-12T17:58:45.924Z,1.40
2018-08-12T17:59:48.980Z,1.40
2018-08-12T18:01:00.439Z,1.60
2018-08-12T18:02:05.340Z,1.60
2018-08-12T18:03:11.050Z,1.60
2018-08-12T18:04:16.546Z,1.70
2018-08-12T18:05:26.667Z,1.70
2018-08-12T18:06:27.680Z,1.70
2018-08-12T18:07:31.060Z,1.70
2018-08-12T18:08:31.932Z,1.70
2018-08-12T18:09:33.576Z,1.70
2018-08-12T18:10:39.336Z,1.60
2018-08-12T18:11:40.085Z,1.80
2018-08-12T18:12:42.915Z,1.70
2018-08-12T18:13:43.879Z,1.50
2018-08-12T18:14:44.875Z,1.80
2018-08-12T18:15:47.930Z,1.70
2018-08-12T18:16:48.970Z,1.80
2018-08-12T18:17:54.358Z,1.90
2018-08-12T18:18:57.493Z,1.80
2018-08-12T18:20:05.805Z,1.90
2018-08-12T18:21:07.816Z,1.70
2018-08-12T18:22:09.396Z,1.80
2018-08-12T18:23:16.412Z,1.70
2018-08-12T18:24:17.771Z,1.70
2018-08-12T18:25:19.701Z,1.90
2018-08-12T18:26:23.535Z,1.90
2018-08-12T18:27:29.110Z,1.90
2018-08-12T18:28:29.957Z,1.80
2018-08-12T18:29:34.880Z,1.70
2018-08-12T18:30:37.279Z,1.80
2018-08-12T18:31:40.569Z,1.80
2018-08-12T18:32:41.540Z,1.70
2018-08-12T18:34:46.028Z,1.70
2018-08-12T18:35:28.658Z,1.80
2018-08-12T18:36:31.490Z,1.70
2018-08-12T18:37:41.370Z,1.70
2018-08-12T18:38:42.183Z,1.80
2018-08-12T18:39:56.536Z,1.70
2018-08-12T18:40:57.629Z,1.90
2018-08-12T18:42:12.704Z,1.70
2018-08-12T18:43:14.584Z,1.70
2018-08-12T18:44:18.185Z,1.70
2018-08-12T18:45:19.715Z,1.90
2018-08-12T18:46:21.467Z,1.70
2018-08-12T18:47:23.063Z,2.00
2018-08-12T18:48:25.668Z,1.70
2018-08-12T18:49:26.418Z,1.70
2018-08-12T18:50:27.377Z,1.90
2018-08-12T18:51:28.321Z,2.00
2018-08-12T18:52:43.660Z,1.80
2018-08-12T18:53:48.550Z,2.10
2018-08-12T18:54:56.315Z,1.70
2018-08-12T18:55:57.095Z,1.80
2018-08-12T18:57:06.981Z,1.80
2018-08-12T18:59:57.443Z,1.80
2018-08-12T19:00:58.263Z,1.80
2018-08-12T19:01:58.966Z,2.00
2018-08-12T19:03:07.093Z,2.20
2018-08-12T19:04:07.862Z,2.00
2018-08-12T19:05:08.532Z,1.90
2018-08-12T19:06:09.355Z,1.80
2018-08-12T19:07:24.427Z,1.80
2018-08-12T19:08:25.519Z,1.70
2018-08-12T19:09:26.872Z,2.10
2018-08-12T19:10:42.097Z,2.00
2018-08-12T19:11:42.849Z,1.80
2018-08-12T19:13:48.257Z,1.90
2018-08-12T19:14:53.428Z,1.90
2018-08-12T19:15:55.471Z,2.20
2018-08-12T19:16:56.213Z,2.10
2018-08-12T19:17:58.030Z,1.80
2018-08-12T19:18:59.689Z,2.00
2018-08-12T19:20:03.093Z,1.90
2018-08-12T19:21:10.426Z,2.00
2018-08-12T19:22:11.172Z,2.10
2018-08-12T19:23:12.023Z,2.20
2018-08-12T19:24:13.580Z,2.10
2018-08-12T19:25:15.919Z,1.80
2018-08-12T19:26:20.026Z,2.10
2018-08-12T19:27:21.098Z,2.10
2018-08-12T19:28:44.784Z,2.00
2018-08-12T19:29:48.284Z,2.10
2018-08-12T19:30:49.055Z,2.10
2018-08-12T19:32:09.659Z,2.00
2018-08-12T19:33:11.936Z,2.00
2018-08-12T19:34:15.653Z,2.20
2018-08-12T19:35:18.562Z,2.10
2018-08-12T19:37:17.825Z,2.00
